Forside
METAR-TAF:

METAR-TAF

Lufthavne :

Sedalia, Missouri, USA

Breddekreds: 38-42-44N, længdekreds: 093-10-28W, højde: 277 m

Aktuelle vejr

Denne rapport blev lavet for 50 minutter siden, kl. 21:53 UTC
Vind 6 kt fra syd
Temperatur 11°C
Fugtighed 54%
Tryk 1018 hPa
Sigt: 16.1 km
skyfri

METAR: KDMO 162153Z AUTO 17006KT 10SM CLR 11/02 A3006 RMK AO2 SLP182 T01060022

Tid: 16:43 (22:43 UTC)


TAF: fraværende

Vejrobservationer og prognoser fra mere end 4000 lufthavne (METAR og TAF).

De gule og røde prikker repræsenterer de meteorologiske stationer.

Flyt musen over at se navnet på stationen.

Så klik over at se vejr observationer og prognoser.

At skifte det kort: Klik på de grønne knapper med et sort kors for at zoome ind; på den grønne knap med en bindestreg for at zoome ud; eller på de grønne pile for tilstødende kort.


METAR-TAF: